Time;durP1;ratioP1;P1;durP2;ratioP2;P2;SDS_P1;SDS_P2;PMS_P1;PMS_P2;Temp;Humidity;BMP_temperature;BMP_pressure;BME280_temperature;BME280_humidity;BME280_pressure;Samples;Min_cycle;Max_cycle;Signal;HPM_P1;HPM_P2
2023/04/06 00:01:00;;;;;;;19.17;8.73;;;;;;;;;;5019877;28;25088;-68
2023/04/06 00:03:26;;;;;;;15.52;7.88;;;;;;;;;;5016959;28;25058;-69
2023/04/06 00:05:51;;;;;;;22.55;8.82;;;;;;;;;;5020460;28;25126;-68
2023/04/06 00:08:17;;;;;;;13.98;6.95;;;;;;;;;;5018311;28;25062;-68
2023/04/06 00:10:44;;;;;;;16.35;7.72;;;;;;;;;;5013766;28;25109;-66
2023/04/06 00:13:10;;;;;;;19.42;8.13;;;;;;;;;;5017104;28;25088;-68
2023/04/06 00:15:36;;;;;;;19.00;8.50;;;;;;;;;;5021804;28;25071;-68
2023/04/06 00:18:02;;;;;;;18.15;8.13;;;;;;;;;;5021309;28;25074;-69
2023/04/06 00:20:28;;;;;;;28.45;9.23;;;;;;;;;;5020047;28;25067;-66
2023/04/06 00:22:55;;;;;;;13.50;7.05;;;;;;;;;;5013323;28;25128;-68
2023/04/06 00:25:21;;;;;;;21.23;8.80;;;;;;;;;;5017752;28;25081;-68
2023/04/06 00:27:47;;;;;;;14.27;8.07;;;;;;;;;;5013604;28;25070;-68
2023/04/06 00:30:13;;;;;;;14.80;7.85;;;;;;;;;;5019128;28;25100;-67
2023/04/06 00:32:39;;;;;;;17.70;7.55;;;;;;;;;;5019105;28;25119;-69
2023/04/06 00:35:05;;;;;;;13.93;8.07;;;;;;;;;;5015903;28;25102;-67
2023/04/06 00:37:31;;;;;;;17.63;7.28;;;;;;;;;;5022606;28;25060;-68
2023/04/06 00:39:57;;;;;;;22.23;8.88;;;;;;;;;;5017628;28;25079;-69
2023/04/06 00:42:26;;;;;;;16.70;8.10;;;;;;;;;;5020266;28;25051;-68
2023/04/06 00:44:56;;;;;;;17.85;7.70;;;;;;;;;;5022381;28;25078;-70
2023/04/06 00:47:24;;;;;;;18.70;7.93;;;;;;;;;;5019931;28;25075;-69
2023/04/06 00:49:50;;;;;;;14.57;8.15;;;;;;;;;;5023823;28;25114;-68
2023/04/06 00:52:16;;;;;;;16.00;8.48;;;;;;;;;;5018543;28;25111;-68
2023/04/06 00:54:42;;;;;;;15.95;8.05;;;;;;;;;;5018657;28;25058;-67
2023/04/06 00:57:08;;;;;;;14.93;8.07;;;;;;;;;;5015912;28;25056;-68
2023/04/06 00:59:35;;;;;;;16.10;8.20;;;;;;;;;;5019944;28;25073;-67
2023/04/06 01:02:01;;;;;;;14.43;7.60;;;;;;;;;;5012780;28;25062;-68
2023/04/06 01:04:27;;;;;;;18.30;8.65;;;;;;;;;;5018264;28;25111;-67
2023/04/06 01:06:53;;;;;;;13.35;7.80;;;;;;;;;;5019255;28;25104;-70
2023/04/06 01:09:19;;;;;;;16.83;7.45;;;;;;;;;;5021986;28;25166;-69
2023/04/06 01:11:45;;;;;;;16.10;7.72;;;;;;;;;;5024095;28;25079;-68
2023/04/06 01:14:11;;;;;;;15.07;7.78;;;;;;;;;;5020150;28;25085;-69
2023/04/06 01:16:37;;;;;;;14.65;8.38;;;;;;;;;;5023522;28;25076;-69
2023/04/06 01:19:10;;;;;;;15.27;7.70;;;;;;;;;;5016754;28;25061;-69
2023/04/06 01:21:36;;;;;;;18.60;8.23;;;;;;;;;;5022294;28;25086;-68
2023/04/06 01:24:02;;;;;;;17.67;7.65;;;;;;;;;;5016512;28;25076;-69
2023/04/06 01:26:29;;;;;;;17.17;7.82;;;;;;;;;;5016118;28;25072;-69
2023/04/06 01:28:55;;;;;;;17.77;8.48;;;;;;;;;;5019571;28;25068;-68
2023/04/06 01:31:21;;;;;;;16.10;7.82;;;;;;;;;;5020306;28;25070;-69
2023/04/06 01:33:47;;;;;;;13.18;7.45;;;;;;;;;;5012345;28;25114;-69
2023/04/06 01:36:13;;;;;;;15.80;8.52;;;;;;;;;;5016042;28;25117;-68
2023/04/06 01:38:41;;;;;;;17.15;8.80;;;;;;;;;;5017833;28;25069;-69
2023/04/06 01:41:07;;;;;;;17.73;8.50;;;;;;;;;;5019696;28;25117;-68
2023/04/06 01:43:33;;;;;;;17.10;8.02;;;;;;;;;;5016630;28;25075;-69
2023/04/06 01:45:59;;;;;;;20.20;9.43;;;;;;;;;;5018026;28;25085;-68
2023/04/06 01:48:26;;;;;;;15.82;8.85;;;;;;;;;;5018353;28;25062;-69
2023/04/06 01:50:52;;;;;;;16.38;8.23;;;;;;;;;;5019768;28;25147;-68
2023/04/06 01:53:18;;;;;;;14.00;8.50;;;;;;;;;;5018825;28;25063;-69
2023/04/06 01:55:45;;;;;;;16.90;8.52;;;;;;;;;;5023753;28;25057;-68
2023/04/06 01:58:11;;;;;;;13.75;8.00;;;;;;;;;;5020745;28;25079;-70
2023/04/06 02:00:37;;;;;;;18.20;9.02;;;;;;;;;;5018522;28;25119;-68
2023/04/06 02:03:02;;;;;;;20.15;8.75;;;;;;;;;;5024931;28;25135;-70
2023/04/06 02:05:29;;;;;;;19.88;9.70;;;;;;;;;;5018509;28;25120;-69
2023/04/06 02:07:56;;;;;;;18.25;8.88;;;;;;;;;;5024587;28;25087;-69
2023/04/06 02:10:22;;;;;;;20.60;10.07;;;;;;;;;;5044924;28;25064;-68
2023/04/06 02:12:48;;;;;;;16.90;9.13;;;;;;;;;;5027310;28;25076;-67
2023/04/06 02:15:14;;;;;;;19.27;8.90;;;;;;;;;;5022350;28;25176;-70
2023/04/06 02:17:40;;;;;;;16.60;9.02;;;;;;;;;;5015757;28;25131;-69
2023/04/06 02:20:07;;;;;;;19.48;9.13;;;;;;;;;;5024323;28;25051;-69
2023/04/06 02:22:33;;;;;;;20.02;9.35;;;;;;;;;;5019072;28;25065;-68
2023/04/06 02:24:59;;;;;;;19.33;10.05;;;;;;;;;;5015307;28;25065;-68
2023/04/06 02:27:25;;;;;;;18.40;9.25;;;;;;;;;;5017640;28;25094;-69
2023/04/06 02:29:51;;;;;;;22.13;10.88;;;;;;;;;;5025421;28;25063;-68
2023/04/06 02:32:17;;;;;;;17.85;9.70;;;;;;;;;;5014528;28;25116;-69
2023/04/06 02:34:43;;;;;;;22.15;10.02;;;;;;;;;;5024180;28;25067;-67
2023/04/06 02:37:09;;;;;;;19.58;10.13;;;;;;;;;;5015753;28;25094;-69
2023/04/06 02:39:35;;;;;;;20.50;9.20;;;;;;;;;;5020218;28;25095;-68
2023/04/06 02:42:01;;;;;;;23.02;9.68;;;;;;;;;;5020397;28;25118;-68
2023/04/06 02:44:27;;;;;;;22.23;11.30;;;;;;;;;;5040019;23;25066;-59
2023/04/06 02:46:53;;;;;;;26.67;10.20;;;;;;;;;;5025295;28;25071;-58
2023/04/06 02:49:19;;;;;;;20.95;10.02;;;;;;;;;;5023748;28;25112;-59
2023/04/06 02:51:45;;;;;;;20.63;9.60;;;;;;;;;;5025257;28;25085;-61
2023/04/06 02:54:11;;;;;;;24.48;10.57;;;;;;;;;;5024409;28;25058;-59
2023/04/06 02:56:37;;;;;;;20.70;10.32;;;;;;;;;;5027865;28;25054;-61
2023/04/06 02:59:03;;;;;;;23.45;10.45;;;;;;;;;;5022153;28;25064;-58
2023/04/06 03:01:29;;;;;;;21.42;10.75;;;;;;;;;;5027099;28;25062;-59
2023/04/06 03:03:55;;;;;;;19.90;9.60;;;;;;;;;;5022092;28;25075;-59
2023/04/06 03:06:21;;;;;;;18.35;10.18;;;;;;;;;;5025066;28;25125;-60
2023/04/06 03:08:47;;;;;;;21.35;10.55;;;;;;;;;;5024494;28;25080;-59
2023/04/06 03:11:13;;;;;;;24.75;10.48;;;;;;;;;;5026278;28;25109;-59
2023/04/06 03:13:39;;;;;;;25.25;11.68;;;;;;;;;;5024575;28;25148;-59
2023/04/06 03:16:05;;;;;;;23.17;10.15;;;;;;;;;;5024693;28;25131;-59
2023/04/06 03:18:32;;;;;;;27.20;10.88;;;;;;;;;;5025131;28;25093;-59
2023/04/06 03:21:00;;;;;;;21.77;10.75;;;;;;;;;;5024966;28;25143;-58
2023/04/06 03:23:26;;;;;;;21.00;10.32;;;;;;;;;;5021018;28;25089;-59
2023/04/06 03:25:52;;;;;;;26.10;11.40;;;;;;;;;;5025285;28;25066;-59
2023/04/06 03:28:17;;;;;;;20.55;10.75;;;;;;;;;;5023495;28;25118;-59
2023/04/06 03:30:43;;;;;;;26.75;11.73;;;;;;;;;;5025048;28;25064;-58
2023/04/06 03:33:09;;;;;;;29.75;11.90;;;;;;;;;;5021085;28;25068;-59
2023/04/06 03:35:36;;;;;;;26.25;10.90;;;;;;;;;;5025487;28;25146;-59
2023/04/06 03:38:02;;;;;;;26.90;11.05;;;;;;;;;;5015007;28;25061;-57
2023/04/06 03:40:28;;;;;;;25.20;11.82;;;;;;;;;;5025828;28;25076;-58
2023/04/06 03:42:54;;;;;;;26.50;11.75;;;;;;;;;;5021635;28;25063;-58
2023/04/06 03:45:20;;;;;;;23.98;11.25;;;;;;;;;;5025377;28;25111;-59
2023/04/06 03:47:46;;;;;;;25.08;11.48;;;;;;;;;;5023482;28;25127;-59
2023/04/06 03:50:12;;;;;;;26.40;11.52;;;;;;;;;;5023894;28;25062;-59
2023/04/06 03:52:38;;;;;;;21.48;11.38;;;;;;;;;;5020441;28;25102;-59
2023/04/06 03:55:05;;;;;;;26.95;13.43;;;;;;;;;;5025140;28;25091;-59
2023/04/06 03:57:31;;;;;;;23.85;11.88;;;;;;;;;;5024078;28;25069;-59
2023/04/06 03:59:57;;;;;;;28.60;12.98;;;;;;;;;;5025641;28;25121;-60
2023/04/06 04:02:22;;;;;;;25.20;12.00;;;;;;;;;;5021401;28;25135;-59
2023/04/06 04:04:49;;;;;;;26.98;11.73;;;;;;;;;;5026566;28;25115;-59
2023/04/06 04:07:15;;;;;;;27.48;12.85;;;;;;;;;;5022506;28;25155;-59
2023/04/06 04:09:41;;;;;;;27.90;13.07;;;;;;;;;;5018416;28;25158;-59
2023/04/06 04:12:07;;;;;;;25.17;11.75;;;;;;;;;;5020928;28;25108;-61
2023/04/06 04:14:33;;;;;;;28.58;11.82;;;;;;;;;;5024020;28;25089;-59
2023/04/06 04:16:59;;;;;;;25.50;11.75;;;;;;;;;;5026212;28;25102;-60
2023/04/06 04:19:25;;;;;;;27.40;13.75;;;;;;;;;;5022117;28;25071;-58
2023/04/06 04:21:50;;;;;;;24.58;12.93;;;;;;;;;;5024846;28;25103;-61
2023/04/06 04:24:16;;;;;;;26.58;13.10;;;;;;;;;;5022826;28;25116;-59
2023/04/06 04:26:42;;;;;;;25.65;11.57;;;;;;;;;;5023218;28;25133;-59
2023/04/06 04:29:09;;;;;;;23.50;12.70;;;;;;;;;;5022316;28;25133;-60
2023/04/06 04:31:35;;;;;;;27.73;12.80;;;;;;;;;;5024988;28;25056;-59
2023/04/06 04:34:01;;;;;;;24.30;12.27;;;;;;;;;;5022375;28;25102;-57
2023/04/06 04:36:27;;;;;;;25.45;12.05;;;;;;;;;;5022984;28;25153;-58
2023/04/06 04:38:53;;;;;;;25.23;11.98;;;;;;;;;;5019405;28;25060;-59
2023/04/06 04:41:19;;;;;;;26.88;12.65;;;;;;;;;;5023660;28;25150;-58
2023/04/06 04:43:45;;;;;;;26.98;11.77;;;;;;;;;;5019592;28;25131;-59
2023/04/06 04:46:11;;;;;;;28.48;11.60;;;;;;;;;;5022671;28;25074;-59
2023/04/06 04:48:37;;;;;;;22.85;11.98;;;;;;;;;;5020038;28;25075;-59
2023/04/06 04:51:05;;;;;;;25.20;12.20;;;;;;;;;;5020552;28;25077;-58
2023/04/06 04:53:31;;;;;;;23.17;10.90;;;;;;;;;;5019959;28;25061;-57
2023/04/06 04:55:57;;;;;;;23.90;12.18;;;;;;;;;;5025844;28;25185;-58
2023/04/06 04:58:22;;;;;;;22.60;12.00;;;;;;;;;;5018052;28;25107;-58
2023/04/06 05:00:48;;;;;;;35.42;14.23;;;;;;;;;;5023313;28;25112;-60
2023/04/06 05:03:20;;;;;;;32.00;14.50;;;;;;;;;;5022315;28;25118;-58
2023/04/06 05:05:46;;;;;;;26.15;11.45;;;;;;;;;;5018240;28;25066;-58
2023/04/06 05:08:12;;;;;;;27.55;12.35;;;;;;;;;;5017222;28;25077;-59
2023/04/06 05:10:38;;;;;;;29.92;13.63;;;;;;;;;;5015652;28;25134;-60
2023/04/06 05:13:04;;;;;;;28.95;12.02;;;;;;;;;;5020966;28;25149;-59
2023/04/06 05:15:30;;;;;;;29.20;12.00;;;;;;;;;;5022969;28;25140;-60
2023/04/06 05:17:56;;;;;;;26.17;12.98;;;;;;;;;;5017562;28;25061;-58
2023/04/06 05:20:22;;;;;;;28.50;11.82;;;;;;;;;;5023828;28;25074;-61
2023/04/06 05:22:48;;;;;;;25.98;12.52;;;;;;;;;;5018353;28;25080;-60
2023/04/06 05:25:15;;;;;;;28.42;12.23;;;;;;;;;;5021883;28;25147;-60
2023/04/06 05:27:41;;;;;;;23.92;12.15;;;;;;;;;;5022130;28;25059;-58
2023/04/06 05:30:07;;;;;;;28.13;12.55;;;;;;;;;;5025806;28;25141;-59
2023/04/06 05:32:33;;;;;;;24.33;12.10;;;;;;;;;;5023445;28;25059;-60
2023/04/06 05:34:59;;;;;;;26.85;12.98;;;;;;;;;;5025845;28;25069;-58
2023/04/06 05:37:25;;;;;;;23.08;11.73;;;;;;;;;;5016823;28;25065;-59
2023/04/06 05:39:51;;;;;;;30.05;12.02;;;;;;;;;;5021959;28;25135;-60
2023/04/06 05:42:17;;;;;;;28.30;12.15;;;;;;;;;;5020648;28;25061;-60
2023/04/06 05:44:43;;;;;;;30.83;13.55;;;;;;;;;;5024191;28;25135;-58
2023/04/06 05:47:09;;;;;;;24.05;12.45;;;;;;;;;;5018111;28;25066;-59
2023/04/06 05:49:35;;;;;;;26.20;11.93;;;;;;;;;;5023761;28;25065;-58
2023/04/06 05:52:01;;;;;;;24.52;11.98;;;;;;;;;;5014471;28;25140;-57
2023/04/06 05:54:27;;;;;;;29.08;13.32;;;;;;;;;;5023300;28;25075;-60
2023/04/06 05:56:53;;;;;;;29.67;13.15;;;;;;;;;;5020619;28;25054;-57
2023/04/06 05:59:20;;;;;;;25.65;12.18;;;;;;;;;;5021127;28;25064;-59
2023/04/06 06:01:46;;;;;;;26.90;11.90;;;;;;;;;;5023265;28;25158;-58
2023/04/06 06:04:12;;;;;;;26.98;13.07;;;;;;;;;;5020534;28;25109;-60
2023/04/06 06:06:38;;;;;;;24.65;12.20;;;;;;;;;;5018345;28;25072;-60
2023/04/06 06:09:04;;;;;;;23.35;11.45;;;;;;;;;;5013593;28;25118;-59
2023/04/06 06:11:30;;;;;;;26.65;13.00;;;;;;;;;;5023161;28;25082;-57
2023/04/06 06:13:56;;;;;;;24.98;12.75;;;;;;;;;;5023134;28;25075;-58
2023/04/06 06:16:22;;;;;;;26.30;12.13;;;;;;;;;;5022534;28;25086;-58
2023/04/06 06:18:48;;;;;;;24.10;14.02;;;;;;;;;;5022490;28;25092;-59
2023/04/06 06:21:16;;;;;;;27.60;13.68;;;;;;;;;;5022904;28;25086;-59
2023/04/06 06:23:42;;;;;;;24.10;12.30;;;;;;;;;;5016070;28;25071;-59
2023/04/06 06:26:08;;;;;;;27.15;13.35;;;;;;;;;;5023560;28;25074;-58
2023/04/06 06:28:34;;;;;;;28.90;12.85;;;;;;;;;;5023938;28;25128;-59
2023/04/06 06:31:00;;;;;;;28.92;13.65;;;;;;;;;;5024150;28;25052;-59
2023/04/06 06:33:27;;;;;;;26.85;12.00;;;;;;;;;;5019936;28;25146;-59
2023/04/06 06:35:52;;;;;;;26.13;13.23;;;;;;;;;;5023845;28;25141;-60
2023/04/06 06:38:19;;;;;;;25.83;13.50;;;;;;;;;;5019815;28;25072;-59
2023/04/06 06:40:47;;;;;;;25.95;12.13;;;;;;;;;;5023509;28;25075;-59
2023/04/06 06:43:13;;;;;;;24.58;13.07;;;;;;;;;;5024728;28;25057;-59
2023/04/06 06:45:39;;;;;;;29.67;13.45;;;;;;;;;;5027471;28;25072;-59
2023/04/06 06:48:05;;;;;;;24.88;13.52;;;;;;;;;;5022420;28;25141;-59
2023/04/06 06:50:31;;;;;;;23.95;13.13;;;;;;;;;;5028637;28;25059;-59
2023/04/06 06:52:57;;;;;;;27.63;13.75;;;;;;;;;;5027478;28;25081;-58
2023/04/06 06:55:23;;;;;;;34.53;13.48;;;;;;;;;;5025109;28;25079;-60
2023/04/06 06:57:49;;;;;;;25.90;12.63;;;;;;;;;;5025561;28;25084;-59
2023/04/06 07:00:15;;;;;;;32.42;13.18;;;;;;;;;;5027154;28;25069;-60
2023/04/06 07:02:41;;;;;;;31.38;12.25;;;;;;;;;;5025347;28;25101;-59
2023/04/06 07:05:07;;;;;;;27.63;13.45;;;;;;;;;;5026402;28;25064;-59
2023/04/06 07:07:33;;;;;;;32.38;13.68;;;;;;;;;;5024935;28;25085;-58
2023/04/06 07:10:00;;;;;;;30.65;14.63;;;;;;;;;;5026569;28;25061;-59
2023/04/06 07:12:26;;;;;;;28.52;13.93;;;;;;;;;;5025070;28;25073;-58
2023/04/06 07:14:52;;;;;;;29.08;12.88;;;;;;;;;;5026553;28;25102;-59
2023/04/06 07:17:18;;;;;;;30.38;12.98;;;;;;;;;;5025202;28;25083;-59
2023/04/06 07:19:44;;;;;;;29.65;14.00;;;;;;;;;;5025174;28;25119;-61
2023/04/06 07:22:09;;;;;;;27.95;13.68;;;;;;;;;;5024976;28;25139;-58
2023/04/06 07:24:35;;;;;;;37.97;15.73;;;;;;;;;;5023957;28;25078;-58
2023/04/06 07:27:01;;;;;;;29.98;13.85;;;;;;;;;;5023350;28;25137;-63
2023/04/06 07:29:27;;;;;;;29.33;13.82;;;;;;;;;;5024447;28;25149;-59
2023/04/06 07:31:54;;;;;;;28.88;13.05;;;;;;;;;;5025833;28;25085;-59
2023/04/06 07:34:20;;;;;;;27.17;13.68;;;;;;;;;;5021960;28;25037;-60
2023/04/06 07:36:46;;;;;;;27.13;13.15;;;;;;;;;;5025912;28;25076;-60
2023/04/06 07:39:12;;;;;;;31.02;14.65;;;;;;;;;;5022356;28;25072;-59
2023/04/06 07:41:38;;;;;;;34.88;14.95;;;;;;;;;;5024574;28;25073;-58
2023/04/06 07:44:04;;;;;;;33.13;14.68;;;;;;;;;;5014586;28;25061;-57
2023/04/06 07:46:31;;;;;;;34.92;15.20;;;;;;;;;;5022566;28;25065;-59
2023/04/06 07:48:57;;;;;;;25.73;14.32;;;;;;;;;;5023125;28;25130;-59
2023/04/06 07:51:23;;;;;;;31.73;14.70;;;;;;;;;;5024570;28;25117;-61
2023/04/06 07:53:50;;;;;;;31.60;14.95;;;;;;;;;;5017836;28;25159;-60
2023/04/06 07:56:17;;;;;;;32.75;15.68;;;;;;;;;;5024540;28;25112;-58
2023/04/06 07:58:42;;;;;;;35.40;15.70;;;;;;;;;;5013059;28;25055;-58
2023/04/06 08:01:08;;;;;;;34.97;16.17;;;;;;;;;;5024650;28;25067;-60
2023/04/06 08:03:35;;;;;;;34.97;17.20;;;;;;;;;;5023489;28;25091;-58
2023/04/06 08:06:02;;;;;;;33.95;16.33;;;;;;;;;;5017746;28;25058;-59
2023/04/06 08:08:28;;;;;;;29.40;14.77;;;;;;;;;;5021086;28;25114;-60
2023/04/06 08:10:54;;;;;;;39.78;18.23;;;;;;;;;;5025182;28;25077;-59
2023/04/06 08:13:20;;;;;;;39.45;16.83;;;;;;;;;;5021202;28;25059;-58
2023/04/06 08:15:46;;;;;;;43.35;19.75;;;;;;;;;;5019043;28;25106;-59
2023/04/06 08:18:12;;;;;;;52.75;22.92;;;;;;;;;;5022592;28;25143;-59
2023/04/06 08:20:38;;;;;;;58.67;21.48;;;;;;;;;;5024786;28;25075;-59
2023/04/06 08:23:04;;;;;;;46.50;20.25;;;;;;;;;;5022723;28;25087;-60
2023/04/06 08:25:30;;;;;;;53.17;20.67;;;;;;;;;;5025760;28;25099;-60
2023/04/06 08:27:56;;;;;;;50.15;20.98;;;;;;;;;;5018632;28;25073;-60
2023/04/06 08:30:22;;;;;;;48.28;18.85;;;;;;;;;;5018327;28;25122;-59
2023/04/06 08:32:48;;;;;;;46.70;22.20;;;;;;;;;;5023438;28;25075;-59
2023/04/06 08:35:14;;;;;;;45.97;19.50;;;;;;;;;;5023770;28;25070;-60
2023/04/06 08:37:40;;;;;;;44.22;18.95;;;;;;;;;;5021674;28;25079;-60
2023/04/06 08:40:07;;;;;;;39.08;17.65;;;;;;;;;;5023830;28;25075;-59
2023/04/06 08:44:59;;;;;;;47.17;16.70;;;;;;;;;;5031153;22;25079;-73
2023/04/06 08:47:25;;;;;;;29.23;14.05;;;;;;;;;;5030190;28;25061;-74
2023/04/06 08:49:55;;;;;;;31.58;12.70;;;;;;;;;;5034853;28;25093;-78
2023/04/06 08:52:21;;;;;;;26.88;12.30;;;;;;;;;;5023584;28;25083;-74
2023/04/06 08:54:47;;;;;;;24.77;11.35;;;;;;;;;;5017740;28;25069;-72
2023/04/06 08:57:14;;;;;;;25.08;12.02;;;;;;;;;;5035348;28;25087;-73
2023/04/06 08:59:39;;;;;;;28.90;11.98;;;;;;;;;;5029856;28;25064;-73
2023/04/06 09:02:06;;;;;;;20.98;10.55;;;;;;;;;;5021679;28;25085;-73
2023/04/06 09:04:33;;;;;;;18.10;9.27;;;;;;;;;;5025686;28;25097;-71
2023/04/06 09:06:59;;;;;;;24.02;10.82;;;;;;;;;;5031520;28;25047;-73
2023/04/06 09:09:25;;;;;;;19.50;10.65;;;;;;;;;;5030887;28;25125;-72
2023/04/06 09:14:55;;;;;;;16.35;9.48;;;;;;;;;;5023737;28;25073;-75
2023/04/06 09:17:25;;;;;;;16.88;9.45;;;;;;;;;;5034759;28;25076;-73
2023/04/06 09:19:51;;;;;;;20.45;8.68;;;;;;;;;;5033682;28;25087;-74
2023/04/06 09:22:19;;;;;;;15.32;8.13;;;;;;;;;;5040410;28;25111;-74
2023/04/06 09:24:46;;;;;;;13.63;8.07;;;;;;;;;;5024126;28;25069;-71
2023/04/06 09:27:13;;;;;;;15.95;8.25;;;;;;;;;;5027886;28;25061;-73
2023/04/06 09:29:39;;;;;;;15.93;8.07;;;;;;;;;;5023766;28;25096;-71
2023/04/06 09:32:05;;;;;;;12.90;6.85;;;;;;;;;;5022008;28;25118;-72
2023/04/06 09:34:32;;;;;;;13.82;6.68;;;;;;;;;;5029432;28;25108;-79
2023/04/06 09:36:58;;;;;;;14.43;7.40;;;;;;;;;;5027570;28;25090;-72
2023/04/06 09:39:25;;;;;;;14.38;7.38;;;;;;;;;;5015551;28;25056;-72
2023/04/06 09:41:52;;;;;;;12.85;6.75;;;;;;;;;;5029058;28;25059;-73
2023/04/06 09:44:19;;;;;;;12.07;6.35;;;;;;;;;;5028962;28;25058;-74
2023/04/06 09:46:46;;;;;;;10.52;6.55;;;;;;;;;;5026250;28;25063;-71
2023/04/06 09:49:12;;;;;;;12.38;6.88;;;;;;;;;;5029049;28;25066;-76
2023/04/06 09:51:58;;;;;;;12.20;6.30;;;;;;;;;;5038983;28;25115;-74
2023/04/06 09:54:27;;;;;;;13.40;7.20;;;;;;;;;;5031574;28;25079;-79
2023/04/06 09:57:08;;;;;;;16.58;7.18;;;;;;;;;;5028237;28;25076;-74
2023/04/06 09:59:37;;;;;;;13.68;7.25;;;;;;;;;;5036250;28;25048;-77
2023/04/06 10:02:05;;;;;;;12.88;6.65;;;;;;;;;;5045425;28;25059;-73
2023/04/06 10:04:31;;;;;;;15.93;8.25;;;;;;;;;;5033300;28;25077;-75
2023/04/06 10:06:59;;;;;;;13.77;6.82;;;;;;;;;;5028021;28;25075;-71
2023/04/06 10:09:26;;;;;;;10.30;6.35;;;;;;;;;;5019990;28;25114;-74
2023/04/06 10:11:52;;;;;;;11.52;6.80;;;;;;;;;;5016597;28;25062;-76
2023/04/06 10:14:18;;;;;;;12.77;7.05;;;;;;;;;;5030057;28;25102;-73
2023/04/06 10:16:44;;;;;;;12.25;6.50;;;;;;;;;;5044308;28;25098;-73
2023/04/06 10:19:14;;;;;;;15.80;8.55;;;;;;;;;;5034362;28;25056;-76
2023/04/06 10:21:40;;;;;;;16.42;8.40;;;;;;;;;;5040211;28;25166;-74
2023/04/06 10:24:10;;;;;;;15.75;7.88;;;;;;;;;;5020747;28;25054;-72
2023/04/06 10:26:36;;;;;;;12.05;7.60;;;;;;;;;;5027789;28;25115;-71
2023/04/06 10:29:03;;;;;;;16.70;8.05;;;;;;;;;;5037402;28;25111;-73
2023/04/06 10:31:29;;;;;;;14.52;7.78;;;;;;;;;;5030359;28;25050;-73
2023/04/06 10:33:56;;;;;;;15.10;7.78;;;;;;;;;;5035112;28;25140;-73
2023/04/06 10:36:23;;;;;;;14.93;7.38;;;;;;;;;;5020106;28;25061;-72
2023/04/06 10:38:55;;;;;;;11.95;6.90;;;;;;;;;;5036285;28;25070;-72
2023/04/06 10:41:20;;;;;;;13.55;7.47;;;;;;;;;;5022777;28;25053;-76
2023/04/06 10:43:55;;;;;;;15.27;8.50;;;;;;;;;;5024894;28;25078;-72
2023/04/06 10:46:25;;;;;;;19.08;8.20;;;;;;;;;;5047172;28;25150;-75
2023/04/06 10:51:26;;;;;;;25.02;9.52;;;;;;;;;;5018192;28;25154;-61
2023/04/06 10:53:53;;;;;;;16.60;9.23;;;;;;;;;;5023947;28;25142;-62
2023/04/06 10:56:21;;;;;;;17.27;9.52;;;;;;;;;;5022838;28;25173;-61
2023/04/06 10:58:52;;;;;;;15.90;9.20;;;;;;;;;;5025434;28;25128;-62
2023/04/06 11:01:19;;;;;;;17.67;9.55;;;;;;;;;;5027458;28;25092;-61
2023/04/06 11:03:46;;;;;;;18.42;9.68;;;;;;;;;;5025111;23;25126;-73
2023/04/06 11:06:18;;;;;;;20.17;9.75;;;;;;;;;;5036556;28;25070;-72
2023/04/06 11:08:44;;;;;;;17.27;8.90;;;;;;;;;;5033528;28;25052;-72
2023/04/06 11:11:15;;;;;;;14.30;8.65;;;;;;;;;;5020225;28;25075;-72
2023/04/06 11:13:49;;;;;;;15.88;9.00;;;;;;;;;;5029439;28;25074;-71
2023/04/06 11:16:19;;;;;;;15.32;8.30;;;;;;;;;;5027042;28;25088;-72
2023/04/06 11:18:57;;;;;;;13.93;8.23;;;9.90;99.90;;;;;;5021988;28;25154;-73
2023/04/06 11:21:39;;;;;;;15.80;9.27;;;;;;;;;;5021014;28;25071;-72
2023/04/06 11:24:12;;;;;;;19.30;9.20;;;;;;;;;;5027101;28;25133;-72
2023/04/06 11:26:39;;;;;;;15.65;8.40;;;;;;;;;;5020906;28;25134;-73
2023/04/06 11:29:06;;;;;;;17.25;9.07;;;;;;;;;;5030786;28;25057;-73
2023/04/06 11:31:32;;;;;;;16.75;8.48;;;;;;;;;;5025387;28;25062;-72
2023/04/06 11:33:58;;;;;;;18.33;9.27;;;;;;;;;;5023299;28;25127;-72
2023/04/06 11:36:27;;;;;;;16.83;8.25;;;;;;;;;;5033420;28;25065;-72
2023/04/06 11:38:53;;;;;;;16.58;9.10;;;;;;;;;;5026531;28;25102;-71
2023/04/06 11:41:25;;;;;;;15.20;8.32;;;;;;;;;;5028203;28;25074;-73
2023/04/06 11:43:51;;;;;;;15.25;9.52;;;;;;;;;;5035917;28;25067;-74
2023/04/06 11:46:21;;;;;;;14.52;8.80;;;;;;;;;;5031864;28;25048;-74
2023/04/06 11:48:47;;;;;;;14.70;8.60;;;;;;;;;;5043461;28;25100;-72
2023/04/06 11:51:22;;;;;;;20.35;9.20;;;;;;;;;;5042714;28;25077;-74
2023/04/06 11:53:48;;;;;;;21.77;9.48;;;;;;;;;;5042773;28;25061;-71
2023/04/06 11:56:28;;;;;;;16.83;8.73;;;;;;;;;;5040124;28;25060;-73
2023/04/06 11:58:59;;;;;;;19.15;10.45;;;;;;;;;;5016449;28;25098;-73
2023/04/06 12:01:25;;;;;;;15.80;8.73;;;;;;;;;;5034945;28;25085;-72
2023/04/06 12:03:52;;;;;;;16.42;8.00;;;;;;;;;;5025174;28;25088;-72
2023/04/06 12:06:18;;;;;;;15.70;8.18;;;;;;;;;;5031860;28;25134;-71
2023/04/06 12:08:44;;;;;;;17.15;8.70;;;;;;;;;;5027562;28;25110;-72
2023/04/06 12:11:11;;;;;;;20.15;9.10;;;;;;;;;;5018384;28;25061;-72
2023/04/06 12:13:38;;;;;;;16.27;8.93;;;;;;;;;;5021923;28;25073;-71
2023/04/06 12:16:04;;;;;;;16.67;8.48;;;;;;;;;;5021465;28;25074;-73
2023/04/06 12:18:30;;;;;;;19.10;9.75;;;;;;;;;;5036189;28;25124;-72
2023/04/06 12:20:56;;;;;;;16.52;8.70;;;;;;;;;;5017040;28;25050;-72
2023/04/06 12:23:22;;;;;;;21.48;9.88;;;;;;;;;;5024538;28;25068;-73
2023/04/06 12:25:48;;;;;;;19.48;9.80;;;;;;;;;;5019827;28;25084;-72
2023/04/06 12:28:15;;;;;;;19.80;9.82;;;;;;;;;;5020170;28;25146;-73
2023/04/06 12:30:41;;;;;;;19.70;10.20;;;;;;;;;;5027012;28;25068;-73
2023/04/06 12:33:07;;;;;;;15.98;9.15;;;;;;;;;;5021316;28;25065;-72
2023/04/06 12:35:38;;;;;;;21.42;10.05;;;;;;;;;;5024912;28;25134;-72
2023/04/06 12:38:05;;;;;;;17.00;9.77;;;;;;;;;;5035642;28;25106;-72
2023/04/06 12:40:31;;;;;;;24.95;10.32;;;;;;;;;;5029232;28;25062;-72
2023/04/06 12:42:57;;;;;;;19.35;10.18;;;;;;;;;;5031686;28;25129;-72
2023/04/06 12:45:23;;;;;;;21.92;10.60;;;;;;;;;;5023590;28;25080;-72
2023/04/06 12:47:49;;;;;;;23.63;10.88;;;;;;;;;;5045630;28;25118;-72
2023/04/06 12:50:15;;;;;;;19.38;11.38;;;;;;;;;;5029920;28;25092;-75
2023/04/06 12:52:41;;;;;;;20.23;9.90;;;;;;;;;;5024955;28;25131;-72
2023/04/06 12:55:08;;;;;;;28.50;11.63;;;;;;;;;;5043771;28;25073;-74
2023/04/06 12:57:34;;;;;;;21.00;10.60;;;;;;;;;;5024664;28;25065;-73
2023/04/06 13:00:00;;;;;;;14.80;9.10;;;;;;;;;;5019059;28;25103;-72
2023/04/06 13:02:26;;;;;;;20.80;11.07;;;;;;;;;;5024110;28;25081;-72
2023/04/06 13:04:53;;;;;;;20.70;10.68;;;;;;;;;;5014788;28;25157;-73
2023/04/06 13:07:21;;;;;;;20.63;9.73;;;;;;;;;;5013013;28;25052;-72
2023/04/06 13:09:49;;;;;;;20.25;10.50;;;;;;;;;;5019527;28;25072;-73
2023/04/06 13:12:15;;;;;;;18.25;10.30;;;;;;;;;;5015716;28;25055;-74
2023/04/06 13:14:41;;;;;;;17.98;9.63;;;;;;;;;;5016862;28;25071;-74
2023/04/06 13:17:07;;;;;;;20.17;10.45;;;;;;;;;;5016633;28;25074;-73
2023/04/06 13:19:33;;;;;;;22.48;11.98;;;;;;;;;;5022972;28;25065;-72
2023/04/06 13:21:59;;;;;;;20.25;12.02;;;;;;;;;;5020583;28;25083;-72
2023/04/06 13:24:30;;;;;;;19.10;11.07;;;;;;;;;;5035398;28;25083;-73
2023/04/06 13:26:56;;;;;;;19.55;10.82;;;;;;;;;;5021734;28;25110;-72
2023/04/06 13:29:22;;;;;;;20.17;11.68;;;;;;;;;;5029345;28;25113;-72
2023/04/06 13:31:48;;;;;;;19.15;11.27;;;;;;;;;;5023418;28;25151;-72
2023/04/06 13:34:15;;;;;;;17.30;10.55;;;;;;;;;;5020241;28;25058;-73
2023/04/06 13:36:42;;;;;;;19.80;10.13;;;;;;;;;;5023874;28;25163;-72
2023/04/06 13:39:11;;;;;;;21.05;11.65;;;;;;;;;;5019138;28;25040;-74
2023/04/06 13:41:37;;;;;;;24.23;11.50;;;;;;;;;;5011931;28;25111;-73
2023/04/06 13:44:03;;;;;;;18.98;10.98;;;;;;;;;;5023037;28;25149;-73
2023/04/06 13:46:29;;;;;;;19.98;11.15;;;;;;;;;;5016582;28;25132;-73
2023/04/06 13:48:55;;;;;;;23.30;10.90;;;;;;;;;;5013910;28;25090;-74
2023/04/06 13:51:21;;;;;;;24.20;12.73;;;10.90;99.90;;;;;;5020433;28;25156;-72
2023/04/06 13:53:50;;;;;;;26.30;12.27;;;;;;;;;;5011593;28;25069;-73
2023/04/06 13:56:16;;;;;;;22.00;11.20;;;;;;;;;;5032454;28;25154;-74
2023/04/06 13:58:42;;;;;;;21.40;11.80;;;;;;;;;;5025772;28;25074;-73
2023/04/06 14:01:09;;;;;;;21.08;10.80;;;;;;;;;;5027778;28;25061;-74
2023/04/06 14:03:35;;;;;;;22.10;11.15;;;;;;;;;;5017132;28;25123;-74
2023/04/06 14:06:02;;;;;;;19.38;10.35;;;;;;;;;;5042725;28;25069;-72
2023/04/06 14:08:28;;;;;;;19.08;11.20;;;;;;;;;;5020229;28;25126;-73
2023/04/06 14:10:55;;;;;;;18.92;11.07;;;;;;;;;;5025624;28;25092;-74
2023/04/06 14:13:21;;;;;;;17.88;9.98;;;;;;;;;;5031516;28;25095;-73
2023/04/06 14:15:46;;;;;;;20.60;10.63;;;11.40;99.90;;;;;;5017123;28;25147;-74
2023/04/06 14:18:13;;;;;;;19.98;11.48;;;;;;;;;;5013510;28;25083;-73
2023/04/06 14:20:40;;;;;;;20.38;11.07;;;;;;;;;;5022463;28;25080;-72
2023/04/06 14:23:06;;;;;;;22.20;12.18;;;;;;;;;;5012541;28;25062;-73
2023/04/06 14:25:34;;;;;;;24.63;11.73;;;;;;;;;;5023832;28;25067;-73